• Join FlightAware (Why Join?)
  • Login
  • US Flag 
11:30AM EDT


 

Airport Tracker/Info


-or-


 

Live Flight TrackerFlight Track Log ✈ N137TK ✈ 01-May-2013 ✈ KILG - KMQY

Flight Track Log - Related Links

Times and Time Zones

All times are in EDT time to prevent confusion due to time zone crossing. See the N137TK flight status page for this flight to view local times or setup timezone preferences in your user account.

Time Position Orientation Groundspeed Altitude Reporting Facility
EDT Latitude Longitude Course Direction KTS MPH feet Rate Location/Type
09:01AM 39.7000 -75.6000 293° West 157 181 800  Level Philadelphia TRACON
09:03AM 39.7167 -75.6500 293° West 213 245 2,200 1,440 Climbing Philadelphia TRACON
09:03AM 39.7233 -75.6858 284° West 209 241 3,300 1,980 Climbing New York Center
09:04AM 39.7511 -75.7203 316° Northwest 189 217 5,200 1,980 Climbing New York Center
09:05AM 39.7778 -75.7789 301° West 172 198 7,300 1,800 Climbing New York Center
09:06AM 39.7961 -75.8369 292° West 179 206 8,900 1,620 Climbing New York Center
09:07AM 39.8186 -75.8981 296° West 184 212 10,700 1,500 Climbing New York Center
09:08AM 39.8406 -75.9672 292° West 198 228 12,000 1,680 Climbing New York Center
09:09AM 39.8644 -76.0419 293° West 203 234 14,100 1,860 Climbing New York Center
09:10AM 39.8844 -76.1086 291° West 198 228 15,800 1,500 Climbing New York Center
09:11AM 39.9042 -76.1750 291° West 198 228 17,200 1,140 Climbing New York Center
09:12AM 39.9114 -76.2458 278° West 198 228 18,100 840 Climbing New York Center
09:13AM 39.9133 -76.3353 272° West 231 266 18,900 1,140 Climbing New York Center
09:14AM 39.9139 -76.4111 271° West 234 269 20,500 1,500 Climbing New York Center
09:15AM 39.9189 -76.4847 275° West 223 257 21,900 1,260 Climbing New York Center
09:16AM 39.9217 -76.5553 273° West 211 243 23,100 1,080 Climbing New York Center
09:17AM 39.9244 -76.6261 273° West 205 236 24,100 960 Climbing New York Center
09:18AM 39.9250 -76.6992 271° West 205 236 25,100 720 Climbing New York Center
09:20AM 39.8806 -76.8028 241° Southwest 204 235 26,000 300 Climbing Washington Center
09:21AM 39.8400 -76.8858 238° Southwest 224 258 26,000  Level Washington Center
09:22AM 39.8017 -76.9689 239° Southwest 259 298 26,000  Level Washington Center
09:23AM 39.7631 -77.0572 240° Southwest 279 321 26,000  Level Washington Center
09:24AM 39.7203 -77.1453 238° Southwest 285 328 26,000  Level Washington Center
09:25AM 39.6797 -77.2308 238° Southwest 285 328 26,000  Level Washington Center
09:26AM 39.6389 -77.3189 239° Southwest 285 328 26,000  Level Washington Center
09:27AM 39.5958 -77.4039 237° Southwest 290 334 26,000  Level Washington Center
09:28AM 39.5550 -77.4917 239° Southwest 290 334 26,000  Level Washington Center
09:29AM 39.5119 -77.5794 238° Southwest 290 334 26,000  Level Washington Center
09:30AM 39.4728 -77.6669 240° Southwest 290 334 26,000  Level Washington Center
09:31AM 39.4317 -77.7519 238° Southwest 290 334 26,000  Level Washington Center
09:32AM 39.3928 -77.8314 238° Southwest 290 334 26,000  Level Washington Center
09:33AM 39.3556 -77.9214 242° Southwest 290 334 26,000  Level Washington Center
09:34AM 39.3206 -78.0114 243° Southwest 285 328 26,000  Level Washington Center
09:35AM 39.2853 -78.1014 243° Southwest 285 328 26,000  Level Washington Center
09:36AM 39.2458 -78.1992 243° Southwest 280 322 26,000  Level Washington Center
09:37AM 39.2125 -78.2892 244° Southwest 268 308 26,000  Level Washington Center
09:38AM 39.1750 -78.3761 241° Southwest 273 314 26,000  Level Washington Center
09:39AM 39.1464 -78.4500 243° Southwest 280 322 26,000  Level Washington Center
09:40AM 39.1042 -78.5553 243° Southwest 280 322 26,000  Level Washington Center
09:41AM 39.0686 -78.6447 243° Southwest 280 322 26,000  Level Washington Center
09:42AM 39.0308 -78.7342 241° Southwest 280 322 26,000  Level Washington Center
09:43AM 38.9950 -78.8233 243° Southwest 280 322 26,000  Level Washington Center
09:44AM 38.9592 -78.9125 243° Southwest 280 322 26,000  Level Washington Center
09:45AM 38.9214 -79.0042 242° Southwest 280 322 26,000  Level Washington Center
09:46AM 38.8853 -79.0958 243° Southwest 286 329 26,000  Level Washington Center
09:47AM 38.8453 -79.1847 240° Southwest 286 329 26,000  Level Washington Center
09:48AM 38.8256 -79.2822 255° West 286 329 26,000  Level Washington Center
09:49AM 38.8100 -79.3800 258° West 281 323 26,000  Level Washington Center
09:50AM 38.7969 -79.4594 258° West 287 330 26,000  Level Washington Center
09:51AM 38.7744 -79.5725 256° West 289 333 26,000  Level Washington Center
09:52AM 38.7564 -79.6808 258° West 294 338 26,000  Level Washington Center
09:53AM 38.7383 -79.7783 257° West 294 338 26,000  Level Washington Center
09:54AM 38.7203 -79.8758 257° West 294 338 26,000  Level Washington Center
09:56AM 38.6769 -80.0919 256° West 281 323 26,000  Level Indianapolis Center
09:57AM 38.6583 -80.1897 256° West 283 326 26,000  Level Indianapolis Center
09:58AM 38.6411 -80.2861 257° West 278 320 26,000  Level Indianapolis Center
09:59AM 38.6219 -80.3828 256° West 280 322 26,000  Level Indianapolis Center
10:00AM 38.6050 -80.4808 258° West 283 326 26,000  Level Indianapolis Center
10:01AM 38.5819 -80.5967 256° West 280 322 26,000  Level Indianapolis Center
10:02AM 38.5631 -80.6933 256° West 280 322 26,000  Level Indianapolis Center
10:03AM 38.5447 -80.7911 257° West 282 325 26,000  Level Indianapolis Center
10:04AM 38.5247 -80.8872 255° West 280 322 26,000  Level Indianapolis Center
10:05AM 38.5061 -80.9836 256° West 280 322 26,000  Level Indianapolis Center
10:06AM 38.4875 -81.0792 256° West 277 319 26,000  Level Indianapolis Center
10:07AM 38.4689 -81.1744 256° West 276 318 26,000  Level Indianapolis Center
10:08AM 38.4497 -81.2694 256° West 276 318 26,000  Level Indianapolis Center
10:10AM 38.4267 -81.3844 256° West 277 319 26,000  Level Indianapolis Center
10:11AM 38.4158 -81.4828 262° West 277 319 26,000  Level Indianapolis Center
10:12AM 38.4075 -81.5822 264° West 280 322 26,000  Level Indianapolis Center
10:13AM 38.3997 -81.6814 264° West 280 322 26,000  Level Indianapolis Center
10:14AM 38.3919 -81.7814 264° West 282 325 26,000  Level Indianapolis Center
10:15AM 38.3853 -81.8808 265° West 279 321 26,000  Level Indianapolis Center
10:16AM 38.3783 -81.9800 265° West 280 322 26,000  Level Indianapolis Center
10:17AM 38.3700 -82.0792 264° West 282 325 26,000  Level Indianapolis Center
10:18AM 38.3325 -82.1850 246° West 275 316 26,000  Level Indianapolis Center
10:19AM 38.3028 -82.2750 247° West 275 316 26,000  Level Indianapolis Center
10:20AM 38.2725 -82.3669 247° West 278 320 26,000  Level Indianapolis Center
10:21AM 38.2428 -82.4567 247° West 277 319 26,000  Level Indianapolis Center
10:22AM 38.2114 -82.5489 247° West 275 316 26,000  Level Indianapolis Center
10:23AM 38.1819 -82.6400 248° West 277 319 26,000  Level Indianapolis Center
10:24AM 38.1467 -82.7442 247° West 276 318 26,000  Level Indianapolis Center
10:25AM 38.1147 -82.8328 245° Southwest 277 319 26,000  Level Indianapolis Center
10:26AM 38.0847 -82.9239 247° West 279 321 26,000  Level Indianapolis Center
10:27AM 38.0544 -83.0114 246° West 273 314 26,000  Level Indianapolis Center
10:28AM 38.0236 -83.1000 246° West 275 316 26,000  Level Indianapolis Center
10:29AM 37.9881 -83.2022 246° West 272 313 26,000  Level Indianapolis Center
10:30AM 37.9589 -83.2894 247° West 269 310 26,000  Level Indianapolis Center
10:31AM 37.9281 -83.3769 246° West 271 312 26,000  Level Indianapolis Center
10:32AM 37.8981 -83.4631 246° West 268 308 26,000  Level Indianapolis Center
10:33AM 37.8675 -83.5511 246° West 271 312 26,000  Level Indianapolis Center
10:34AM 37.8322 -83.6508 246° West 266 306 26,000  Level Indianapolis Center
10:35AM 37.8022 -83.7386 247° West 270 311 26,000  Level Indianapolis Center
10:36AM 37.7714 -83.8250 246° West 271 312 26,000  Level Indianapolis Center
10:37AM 37.7406 -83.9111 246° West 270 311 26,000  Level Indianapolis Center
10:38AM 37.7100 -83.9986 246° West 273 314 26,000  Level Indianapolis Center
10:40AM 37.6792 -84.0853 246° West 271 312 26,000  Level Indianapolis Center
10:41AM 37.6344 -84.1758 238° Southwest 263 303 26,000  Level Indianapolis Center
10:42AM 37.5747 -84.2333 217° Southwest 267 307 26,000  Level Indianapolis Center
10:43AM 37.5161 -84.2894 217° Southwest 265 305 26,000  Level Indianapolis Center
10:44AM 37.4575 -84.3447 217° Southwest 263 303 26,000  Level Indianapolis Center
10:45AM 37.3983 -84.4008 217° Southwest 266 306 26,000  Level Indianapolis Center
10:46AM 37.3314 -84.4656 218° Southwest 261 300 26,000  Level Indianapolis Center
10:47AM 37.2728 -84.5211 217° Southwest 264 304 26,000  Level Indianapolis Center
10:48AM 37.2139 -84.5778 217° Southwest 264 304 26,000  Level Indianapolis Center
10:49AM 37.1544 -84.6328 216° Southwest 265 305 26,000  Level Indianapolis Center
10:50AM 37.0961 -84.6894 218° Southwest 265 305 26,000 -120 Level Indianapolis Center
10:51AM 37.0500 -84.7603 231° Southwest 271 312 25,800 -720 Descending Indianapolis Center
10:52AM 37.0019 -84.8614 239° Southwest 289 333 24,600 -1,080 Descending Indianapolis Center
10:53AM 36.9597 -84.9539 240° Southwest 302 348 23,600 -1,080 Descending Indianapolis Center
10:54AM 36.9164 -85.0464 240° Southwest 309 356 22,400 -1,200 Descending Indianapolis Center
10:55AM 36.8731 -85.1394 240° Southwest 311 358 21,200 -1,200 Descending Indianapolis Center
10:56AM 36.8269 -85.2350 239° Southwest 319 367 20,000 -1,140 Descending Indianapolis Center
10:57AM 36.7728 -85.3197 231° Southwest 317 365 18,900 -1,080 Descending Indianapolis Center
10:58AM 36.7094 -85.4200 232° Southwest 309 356 17,800 -1,200 Descending Indianapolis Center
10:59AM 36.6583 -85.5025 232° Southwest 302 348 16,500 -1,320 Descending Indianapolis Center
11:00AM 36.6056 -85.5839 231° Southwest 302 348 15,100 -1,560 Descending Indianapolis Center
11:01AM 36.5533 -85.6633 231° Southwest 306 352 13,500 -1,680 Descending Memphis Center
11:02AM 36.5042 -85.7411 232° Southwest 306 352 11,900 -1,680 Descending Memphis Center
11:03AM 36.4550 -85.8239 234° Southwest 306 352 10,200 -1,620 Descending Memphis Center
11:04AM 36.4058 -85.9014 232° Southwest 306 352 8,700 -1,140 Descending Memphis Center
11:05AM 36.3564 -85.9789 232° Southwest 299 344 8,000 -360 Descending Memphis Center
11:06AM 36.3108 -86.0483 231° Southwest 278 320 8,000 -60 Level Memphis Center
11:07AM 36.2656 -86.1203 232° Southwest 273 314 7,900 -540 Descending Memphis Center
11:08AM 36.2239 -86.1842 231° Southwest 273 314 7,000 -960 Descending Memphis Center
11:09AM 36.1764 -86.2583 232° Southwest 273 314 6,000 -1,020 Descending Memphis Center
11:10AM 36.1436 -86.3397 244° Southwest 273 314 5,000 -1,080 Descending Memphis Center
11:11AM 36.1189 -86.4156 248° West 252 290 3,900 -1,020 Descending Memphis Center
11:12AM 36.0981 -86.4858 250° West 231 266 3,000 -1,080 Descending Memphis Center
11:13AM 36.0575 -86.5211 215° Southwest 164 189 1,800 -1,140 Descending Memphis Center
11:14AM 36.0200 -86.5203 179° South 141 162 800 -540 Descending Memphis Center
11:15AM 35.9875 -86.5500 217° Southwest 141 162 800 3,600 Level Memphis Center
11:16AM 35.9506 -86.5697 203° Southwest 141 162 8,000 7,200 Climbing Memphis Center
11:18AM 36.0000 -86.5167 39° Northeast  Level FlightAware Approximate
11:25AM 36.0090 -86.5201 39° Northeast  Level Estimated
11:26AM 36.0090 -86.5201 39° Northeast  Level Estimated
11:27AM 36.0090 -86.5201 39° Northeast  Level Estimated
11:28AM 36.0090 -86.5201 39° Northeast  Level Estimated
11:29AM 36.0090 -86.5201 39° Northeast  Level Estimated
11:30AM 36.0090 -86.5201 39° Northeast  Level Estimated
11:31AM 36.0090 -86.5201 39° Northeast  Level Estimated
11:32AM 36.0090 -86.5201 39° Northeast  Level Estimated
11:33AM 36.0090 -86.5201 39° Northeast  Level Estimated
11:34AM 36.0090 -86.5201 39° Northeast  Level Estimated